sensor_id;sensor_type;location;lat;lon;timestamp;P1;durP1;ratioP1;P2;durP2;ratioP2
73859;SDS011;62197;51.632;13.700;2023-03-20T00:00:40;4.45;;;3.47;;
73859;SDS011;62197;51.632;13.700;2023-03-20T00:03:10;6.15;;;3.70;;
73859;SDS011;62197;51.632;13.700;2023-03-20T00:05:36;5.78;;;3.97;;
73859;SDS011;62197;51.632;13.700;2023-03-20T00:08:02;5.22;;;3.22;;
73859;SDS011;62197;51.632;13.700;2023-03-20T00:10:48;7.70;;;3.88;;
73859;SDS011;62197;51.632;13.700;2023-03-20T00:13:14;6.35;;;3.30;;
73859;SDS011;62197;51.632;13.700;2023-03-20T00:15:48;5.78;;;3.60;;
73859;SDS011;62197;51.632;13.700;2023-03-20T00:18:17;5.88;;;3.75;;
73859;SDS011;62197;51.632;13.700;2023-03-20T00:20:45;5.55;;;3.72;;
73859;SDS011;62197;51.632;13.700;2023-03-20T00:23:11;7.95;;;3.50;;
73859;SDS011;62197;51.632;13.700;2023-03-20T00:25:37;4.75;;;3.33;;
73859;SDS011;62197;51.632;13.700;2023-03-20T00:28:28;5.72;;;3.28;;
73859;SDS011;62197;51.632;13.700;2023-03-20T00:30:54;7.00;;;3.80;;
73859;SDS011;62197;51.632;13.700;2023-03-20T00:33:20;7.68;;;3.80;;
73859;SDS011;62197;51.632;13.700;2023-03-20T00:35:46;5.32;;;3.25;;
73859;SDS011;62197;51.632;13.700;2023-03-20T00:38:12;6.22;;;3.78;;
73859;SDS011;62197;51.632;13.700;2023-03-20T00:40:37;7.18;;;3.55;;
73859;SDS011;62197;51.632;13.700;2023-03-20T00:45:29;6.97;;;3.75;;
73859;SDS011;62197;51.632;13.700;2023-03-20T00:47:57;9.18;;;3.90;;
73859;SDS011;62197;51.632;13.700;2023-03-20T00:50:27;5.13;;;3.50;;
73859;SDS011;62197;51.632;13.700;2023-03-20T00:52:54;7.93;;;4.15;;
73859;SDS011;62197;51.632;13.700;2023-03-20T00:55:21;6.72;;;3.75;;
73859;SDS011;62197;51.632;13.700;2023-03-20T00:57:50;6.28;;;3.55;;
73859;SDS011;62197;51.632;13.700;2023-03-20T01:00:25;8.85;;;4.15;;
73859;SDS011;62197;51.632;13.700;2023-03-20T01:05:34;7.20;;;3.72;;
73859;SDS011;62197;51.632;13.700;2023-03-20T01:08:00;8.27;;;4.00;;
73859;SDS011;62197;51.632;13.700;2023-03-20T01:10:27;5.15;;;3.60;;
73859;SDS011;62197;51.632;13.700;2023-03-20T01:12:56;8.75;;;4.05;;
73859;SDS011;62197;51.632;13.700;2023-03-20T01:15:24;6.30;;;4.00;;
73859;SDS011;62197;51.632;13.700;2023-03-20T01:17:54;8.50;;;4.55;;
73859;SDS011;62197;51.632;13.700;2023-03-20T01:20:21;7.10;;;4.38;;
73859;SDS011;62197;51.632;13.700;2023-03-20T01:22:49;10.48;;;4.53;;
73859;SDS011;62197;51.632;13.700;2023-03-20T01:25:15;9.38;;;4.07;;
73859;SDS011;62197;51.632;13.700;2023-03-20T01:27:41;8.60;;;4.30;;
73859;SDS011;62197;51.632;13.700;2023-03-20T01:30:19;7.90;;;4.63;;
73859;SDS011;62197;51.632;13.700;2023-03-20T01:32:47;9.90;;;4.15;;
73859;SDS011;62197;51.632;13.700;2023-03-20T01:35:13;6.35;;;4.00;;
73859;SDS011;62197;51.632;13.700;2023-03-20T01:37:40;6.90;;;4.25;;
73859;SDS011;62197;51.632;13.700;2023-03-20T01:40:39;6.53;;;4.03;;
73859;SDS011;62197;51.632;13.700;2023-03-20T01:45:38;7.35;;;4.32;;
73859;SDS011;62197;51.632;13.700;2023-03-20T01:48:15;6.55;;;4.47;;
73859;SDS011;62197;51.632;13.700;2023-03-20T01:50:42;6.28;;;4.63;;
73859;SDS011;62197;51.632;13.700;2023-03-20T01:55:39;7.70;;;4.35;;
73859;SDS011;62197;51.632;13.700;2023-03-20T01:58:09;9.23;;;4.55;;
73859;SDS011;62197;51.632;13.700;2023-03-20T02:00:40;8.52;;;4.75;;
73859;SDS011;62197;51.632;13.700;2023-03-20T02:03:06;7.78;;;4.53;;
73859;SDS011;62197;51.632;13.700;2023-03-20T02:05:33;7.43;;;4.60;;
73859;SDS011;62197;51.632;13.700;2023-03-20T02:08:16;7.05;;;4.40;;
73859;SDS011;62197;51.632;13.700;2023-03-20T02:10:48;8.13;;;4.75;;
73859;SDS011;62197;51.632;13.700;2023-03-20T02:13:14;6.88;;;4.50;;
73859;SDS011;62197;51.632;13.700;2023-03-20T02:15:57;8.43;;;4.28;;
73859;SDS011;62197;51.632;13.700;2023-03-20T02:18:25;6.93;;;4.22;;
73859;SDS011;62197;51.632;13.700;2023-03-20T02:20:57;7.65;;;4.50;;
73859;SDS011;62197;51.632;13.700;2023-03-20T02:26:49;7.60;;;4.88;;
73859;SDS011;62197;51.632;13.700;2023-03-20T02:38:40;10.63;;;5.47;;
73859;SDS011;62197;51.632;13.700;2023-03-20T02:43:53;13.20;;;7.43;;
73859;SDS011;62197;51.632;13.700;2023-03-20T02:47:14;9.45;;;5.32;;
73859;SDS011;62197;51.632;13.700;2023-03-20T02:49:59;9.30;;;5.70;;
73859;SDS011;62197;51.632;13.700;2023-03-20T02:52:43;12.13;;;5.45;;
73859;SDS011;62197;51.632;13.700;2023-03-20T03:00:27;8.57;;;4.90;;
73859;SDS011;62197;51.632;13.700;2023-03-20T03:05:53;7.65;;;5.60;;
73859;SDS011;62197;51.632;13.700;2023-03-20T03:08:24;9.00;;;5.15;;
73859;SDS011;62197;51.632;13.700;2023-03-20T03:10:57;7.85;;;5.07;;
73859;SDS011;62197;51.632;13.700;2023-03-20T03:13:26;7.90;;;5.03;;
73859;SDS011;62197;51.632;13.700;2023-03-20T03:15:55;7.07;;;5.10;;
73859;SDS011;62197;51.632;13.700;2023-03-20T03:18:27;7.93;;;5.53;;
73859;SDS011;62197;51.632;13.700;2023-03-20T03:20:55;9.75;;;5.70;;
73859;SDS011;62197;51.632;13.700;2023-03-20T03:23:26;7.75;;;5.22;;
73859;SDS011;62197;51.632;13.700;2023-03-20T03:25:55;8.93;;;5.45;;
73859;SDS011;62197;51.632;13.700;2023-03-20T03:31:01;8.13;;;4.32;;
73859;SDS011;62197;51.632;13.700;2023-03-20T03:33:30;8.85;;;5.43;;
73859;SDS011;62197;51.632;13.700;2023-03-20T03:36:08;6.40;;;4.43;;
73859;SDS011;62197;51.632;13.700;2023-03-20T03:41:22;6.40;;;4.57;;
73859;SDS011;62197;51.632;13.700;2023-03-20T03:46:25;8.30;;;5.22;;
73859;SDS011;62197;51.632;13.700;2023-03-20T03:48:58;9.27;;;5.47;;
73859;SDS011;62197;51.632;13.700;2023-03-20T03:51:27;8.15;;;4.82;;
73859;SDS011;62197;51.632;13.700;2023-03-20T03:53:59;7.72;;;5.22;;
73859;SDS011;62197;51.632;13.700;2023-03-20T03:56:31;7.38;;;5.20;;
73859;SDS011;62197;51.632;13.700;2023-03-20T03:59:05;6.72;;;4.97;;
73859;SDS011;62197;51.632;13.700;2023-03-20T04:01:35;8.00;;;4.85;;
73859;SDS011;62197;51.632;13.700;2023-03-20T04:04:03;7.07;;;4.53;;
73859;SDS011;62197;51.632;13.700;2023-03-20T04:06:33;7.60;;;4.80;;
73859;SDS011;62197;51.632;13.700;2023-03-20T04:08:58;7.50;;;5.22;;
73859;SDS011;62197;51.632;13.700;2023-03-20T04:13:50;9.63;;;4.80;;
73859;SDS011;62197;51.632;13.700;2023-03-20T04:16:17;8.73;;;4.38;;
73859;SDS011;62197;51.632;13.700;2023-03-20T04:18:44;8.45;;;5.13;;
73859;SDS011;62197;51.632;13.700;2023-03-20T04:21:10;8.15;;;4.57;;
73859;SDS011;62197;51.632;13.700;2023-03-20T04:23:35;6.55;;;4.38;;
73859;SDS011;62197;51.632;13.700;2023-03-20T04:26:01;7.68;;;4.70;;
73859;SDS011;62197;51.632;13.700;2023-03-20T04:28:27;5.95;;;4.57;;
73859;SDS011;62197;51.632;13.700;2023-03-20T04:30:53;5.57;;;3.72;;
73859;SDS011;62197;51.632;13.700;2023-03-20T04:33:20;7.50;;;3.95;;
73859;SDS011;62197;51.632;13.700;2023-03-20T04:35:45;6.85;;;4.15;;
73859;SDS011;62197;51.632;13.700;2023-03-20T04:40:36;5.75;;;4.05;;
73859;SDS011;62197;51.632;13.700;2023-03-20T04:43:02;7.40;;;4.65;;
73859;SDS011;62197;51.632;13.700;2023-03-20T04:47:52;6.30;;;4.23;;
73859;SDS011;62197;51.632;13.700;2023-03-20T04:52:43;10.30;;;4.37;;
73859;SDS011;62197;51.632;13.700;2023-03-20T04:57:33;6.57;;;4.20;;
73859;SDS011;62197;51.632;13.700;2023-03-20T04:59:59;6.97;;;4.20;;
73859;SDS011;62197;51.632;13.700;2023-03-20T05:04:49;5.57;;;3.97;;
73859;SDS011;62197;51.632;13.700;2023-03-20T05:09:40;5.97;;;3.97;;
73859;SDS011;62197;51.632;13.700;2023-03-20T05:12:05;6.65;;;4.35;;
73859;SDS011;62197;51.632;13.700;2023-03-20T05:14:31;6.10;;;4.22;;
73859;SDS011;62197;51.632;13.700;2023-03-20T05:16:56;5.20;;;4.00;;
73859;SDS011;62197;51.632;13.700;2023-03-20T05:21:47;6.33;;;4.47;;
73859;SDS011;62197;51.632;13.700;2023-03-20T05:26:37;8.63;;;4.97;;
73859;SDS011;62197;51.632;13.700;2023-03-20T05:29:02;9.50;;;4.50;;
73859;SDS011;62197;51.632;13.700;2023-03-20T05:31:28;6.70;;;4.30;;
73859;SDS011;62197;51.632;13.700;2023-03-20T05:36:18;10.77;;;4.70;;
73859;SDS011;62197;51.632;13.700;2023-03-20T05:38:44;6.53;;;4.25;;
73859;SDS011;62197;51.632;13.700;2023-03-20T05:41:09;6.82;;;4.53;;
73859;SDS011;62197;51.632;13.700;2023-03-20T05:46:00;8.37;;;5.03;;
73859;SDS011;62197;51.632;13.700;2023-03-20T05:48:25;8.55;;;5.05;;
73859;SDS011;62197;51.632;13.700;2023-03-20T05:50:50;5.93;;;4.32;;
73859;SDS011;62197;51.632;13.700;2023-03-20T05:55:41;6.93;;;4.80;;
73859;SDS011;62197;51.632;13.700;2023-03-20T05:58:08;8.30;;;4.38;;
73859;SDS011;62197;51.632;13.700;2023-03-20T06:00:34;7.75;;;4.90;;
73859;SDS011;62197;51.632;13.700;2023-03-20T06:03:00;9.73;;;4.80;;
73859;SDS011;62197;51.632;13.700;2023-03-20T06:07:50;10.00;;;4.80;;
73859;SDS011;62197;51.632;13.700;2023-03-20T06:12:41;8.53;;;4.57;;
73859;SDS011;62197;51.632;13.700;2023-03-20T06:15:06;8.10;;;4.90;;
73859;SDS011;62197;51.632;13.700;2023-03-20T06:17:32;8.35;;;4.50;;
73859;SDS011;62197;51.632;13.700;2023-03-20T06:22:22;7.80;;;4.80;;
73859;SDS011;62197;51.632;13.700;2023-03-20T06:27:13;8.40;;;5.47;;
73859;SDS011;62197;51.632;13.700;2023-03-20T06:29:38;8.85;;;5.15;;
73859;SDS011;62197;51.632;13.700;2023-03-20T06:32:05;8.57;;;5.40;;
73859;SDS011;62197;51.632;13.700;2023-03-20T06:34:32;7.45;;;5.03;;
73859;SDS011;62197;51.632;13.700;2023-03-20T06:36:57;8.10;;;5.20;;
73859;SDS011;62197;51.632;13.700;2023-03-20T06:41:48;7.40;;;4.33;;
73859;SDS011;62197;51.632;13.700;2023-03-20T06:46:38;8.23;;;5.10;;
73859;SDS011;62197;51.632;13.700;2023-03-20T06:49:04;9.02;;;5.18;;
73859;SDS011;62197;51.632;13.700;2023-03-20T06:51:30;7.03;;;4.93;;
73859;SDS011;62197;51.632;13.700;2023-03-20T06:53:55;9.20;;;5.72;;
73859;SDS011;62197;51.632;13.700;2023-03-20T06:58:46;6.90;;;4.60;;
73859;SDS011;62197;51.632;13.700;2023-03-20T07:01:12;8.00;;;5.57;;
73859;SDS011;62197;51.632;13.700;2023-03-20T07:03:40;11.65;;;6.88;;
73859;SDS011;62197;51.632;13.700;2023-03-20T07:06:06;7.55;;;5.35;;
73859;SDS011;62197;51.632;13.700;2023-03-20T07:08:32;8.05;;;5.13;;
73859;SDS011;62197;51.632;13.700;2023-03-20T07:10:58;8.07;;;5.82;;
73859;SDS011;62197;51.632;13.700;2023-03-20T07:13:24;10.00;;;5.78;;
73859;SDS011;62197;51.632;13.700;2023-03-20T07:15:50;8.80;;;5.53;;
73859;SDS011;62197;51.632;13.700;2023-03-20T07:18:15;9.00;;;5.95;;
73859;SDS011;62197;51.632;13.700;2023-03-20T07:20:41;9.75;;;6.03;;
73859;SDS011;62197;51.632;13.700;2023-03-20T07:23:06;10.00;;;5.68;;
73859;SDS011;62197;51.632;13.700;2023-03-20T07:25:31;8.65;;;5.80;;
73859;SDS011;62197;51.632;13.700;2023-03-20T07:27:57;9.23;;;5.60;;
73859;SDS011;62197;51.632;13.700;2023-03-20T07:30:23;42.78;;;11.32;;
73859;SDS011;62197;51.632;13.700;2023-03-20T07:32:48;10.68;;;5.53;;
73859;SDS011;62197;51.632;13.700;2023-03-20T07:35:13;8.35;;;4.88;;
73859;SDS011;62197;51.632;13.700;2023-03-20T07:37:39;8.13;;;4.97;;
73859;SDS011;62197;51.632;13.700;2023-03-20T07:40:05;6.97;;;4.55;;
73859;SDS011;62197;51.632;13.700;2023-03-20T07:42:31;7.40;;;4.97;;
73859;SDS011;62197;51.632;13.700;2023-03-20T07:44:56;8.55;;;5.32;;
73859;SDS011;62197;51.632;13.700;2023-03-20T07:47:21;7.82;;;5.15;;
73859;SDS011;62197;51.632;13.700;2023-03-20T07:49:47;10.00;;;5.75;;
73859;SDS011;62197;51.632;13.700;2023-03-20T07:52:12;7.97;;;4.80;;
73859;SDS011;62197;51.632;13.700;2023-03-20T07:54:37;8.15;;;4.72;;
73859;SDS011;62197;51.632;13.700;2023-03-20T07:57:03;8.85;;;5.20;;
73859;SDS011;62197;51.632;13.700;2023-03-20T07:59:29;8.00;;;4.78;;
73859;SDS011;62197;51.632;13.700;2023-03-20T08:01:55;7.75;;;5.15;;
73859;SDS011;62197;51.632;13.700;2023-03-20T08:04:20;6.57;;;5.15;;
73859;SDS011;62197;51.632;13.700;2023-03-20T08:06:47;7.53;;;5.07;;
73859;SDS011;62197;51.632;13.700;2023-03-20T08:09:12;7.93;;;5.43;;
73859;SDS011;62197;51.632;13.700;2023-03-20T08:11:38;9.55;;;5.57;;
73859;SDS011;62197;51.632;13.700;2023-03-20T08:14:03;10.98;;;6.13;;
73859;SDS011;62197;51.632;13.700;2023-03-20T08:16:28;9.77;;;5.68;;
73859;SDS011;62197;51.632;13.700;2023-03-20T08:18:54;10.68;;;5.88;;
73859;SDS011;62197;51.632;13.700;2023-03-20T08:21:25;12.32;;;6.75;;
73859;SDS011;62197;51.632;13.700;2023-03-20T08:23:51;9.50;;;5.93;;
73859;SDS011;62197;51.632;13.700;2023-03-20T08:26:16;11.57;;;6.15;;
73859;SDS011;62197;51.632;13.700;2023-03-20T08:28:41;11.85;;;7.57;;
73859;SDS011;62197;51.632;13.700;2023-03-20T08:31:07;13.70;;;6.75;;
73859;SDS011;62197;51.632;13.700;2023-03-20T08:33:33;11.90;;;7.18;;
73859;SDS011;62197;51.632;13.700;2023-03-20T08:35:59;13.15;;;8.30;;
73859;SDS011;62197;51.632;13.700;2023-03-20T08:38:24;11.88;;;7.90;;
73859;SDS011;62197;51.632;13.700;2023-03-20T08:40:50;13.82;;;7.75;;
73859;SDS011;62197;51.632;13.700;2023-03-20T08:43:15;11.95;;;7.80;;
73859;SDS011;62197;51.632;13.700;2023-03-20T08:45:42;13.10;;;8.43;;
73859;SDS011;62197;51.632;13.700;2023-03-20T08:48:07;14.55;;;8.48;;
73859;SDS011;62197;51.632;13.700;2023-03-20T08:50:33;14.77;;;9.38;;
73859;SDS011;62197;51.632;13.700;2023-03-20T08:52:58;14.60;;;8.68;;
73859;SDS011;62197;51.632;13.700;2023-03-20T08:55:23;16.73;;;9.57;;
73859;SDS011;62197;51.632;13.700;2023-03-20T08:57:49;14.20;;;8.07;;
73859;SDS011;62197;51.632;13.700;2023-03-20T09:00:14;16.15;;;9.80;;
73859;SDS011;62197;51.632;13.700;2023-03-20T09:02:41;17.45;;;9.90;;
73859;SDS011;62197;51.632;13.700;2023-03-20T09:05:07;16.67;;;9.88;;
73859;SDS011;62197;51.632;13.700;2023-03-20T09:07:33;22.27;;;10.93;;
73859;SDS011;62197;51.632;13.700;2023-03-20T09:09:59;18.60;;;10.75;;
73859;SDS011;62197;51.632;13.700;2023-03-20T09:12:24;21.10;;;11.05;;
73859;SDS011;62197;51.632;13.700;2023-03-20T09:14:50;21.38;;;12.07;;
73859;SDS011;62197;51.632;13.700;2023-03-20T09:17:15;17.33;;;9.07;;
73859;SDS011;62197;51.632;13.700;2023-03-20T09:19:40;20.55;;;10.48;;
73859;SDS011;62197;51.632;13.700;2023-03-20T09:22:08;23.67;;;12.73;;
73859;SDS011;62197;51.632;13.700;2023-03-20T09:24:37;20.70;;;11.30;;
73859;SDS011;62197;51.632;13.700;2023-03-20T09:27:02;25.40;;;13.00;;
73859;SDS011;62197;51.632;13.700;2023-03-20T09:29:28;24.25;;;11.93;;
73859;SDS011;62197;51.632;13.700;2023-03-20T09:31:53;22.83;;;10.65;;
73859;SDS011;62197;51.632;13.700;2023-03-20T09:34:18;25.05;;;13.23;;
73859;SDS011;62197;51.632;13.700;2023-03-20T09:36:44;22.63;;;12.52;;
73859;SDS011;62197;51.632;13.700;2023-03-20T09:39:09;25.77;;;13.23;;
73859;SDS011;62197;51.632;13.700;2023-03-20T09:41:35;24.60;;;12.82;;
73859;SDS011;62197;51.632;13.700;2023-03-20T09:46:58;25.75;;;13.20;;
73859;SDS011;62197;51.632;13.700;2023-03-20T09:49:28;25.35;;;12.73;;
73859;SDS011;62197;51.632;13.700;2023-03-20T09:51:56;22.02;;;11.45;;
73859;SDS011;62197;51.632;13.700;2023-03-20T09:54:32;18.88;;;10.23;;
73859;SDS011;62197;51.632;13.700;2023-03-20T09:57:01;18.30;;;10.45;;
73859;SDS011;62197;51.632;13.700;2023-03-20T09:59:28;19.70;;;10.70;;
73859;SDS011;62197;51.632;13.700;2023-03-20T10:01:58;22.77;;;12.48;;
73859;SDS011;62197;51.632;13.700;2023-03-20T10:04:28;25.00;;;12.98;;
73859;SDS011;62197;51.632;13.700;2023-03-20T10:06:54;21.33;;;11.00;;
73859;SDS011;62197;51.632;13.700;2023-03-20T10:09:21;21.27;;;11.50;;
73859;SDS011;62197;51.632;13.700;2023-03-20T10:17:19;22.40;;;10.95;;
73859;SDS011;62197;51.632;13.700;2023-03-20T10:22:35;20.23;;;10.57;;
73859;SDS011;62197;51.632;13.700;2023-03-20T10:28:12;15.63;;;8.43;;
73859;SDS011;62197;51.632;13.700;2023-03-20T10:39:51;21.27;;;8.63;;
73859;SDS011;62197;51.632;13.700;2023-03-20T10:42:29;21.02;;;10.23;;
73859;SDS011;62197;51.632;13.700;2023-03-20T10:45:00;24.10;;;11.20;;
73859;SDS011;62197;51.632;13.700;2023-03-20T10:47:31;22.58;;;9.95;;
73859;SDS011;62197;51.632;13.700;2023-03-20T10:50:06;24.40;;;10.45;;
73859;SDS011;62197;51.632;13.700;2023-03-20T10:52:40;24.95;;;11.07;;
73859;SDS011;62197;51.632;13.700;2023-03-20T10:55:25;23.38;;;10.57;;
73859;SDS011;62197;51.632;13.700;2023-03-20T10:58:13;20.73;;;9.55;;
73859;SDS011;62197;51.632;13.700;2023-03-20T11:00:40;22.67;;;10.48;;
73859;SDS011;62197;51.632;13.700;2023-03-20T11:03:06;25.88;;;11.70;;
73859;SDS011;62197;51.632;13.700;2023-03-20T11:05:40;26.85;;;11.75;;
73859;SDS011;62197;51.632;13.700;2023-03-20T11:08:07;28.65;;;12.63;;
73859;SDS011;62197;51.632;13.700;2023-03-20T11:10:36;36.08;;;14.63;;
73859;SDS011;62197;51.632;13.700;2023-03-20T11:15:50;35.78;;;14.98;;
73859;SDS011;62197;51.632;13.700;2023-03-20T11:18:16;39.72;;;16.02;;
73859;SDS011;62197;51.632;13.700;2023-03-20T11:23:13;37.05;;;14.80;;
73859;SDS011;62197;51.632;13.700;2023-03-20T11:26:00;41.05;;;16.23;;
73859;SDS011;62197;51.632;13.700;2023-03-20T11:28:31;55.22;;;18.52;;
73859;SDS011;62197;51.632;13.700;2023-03-20T11:31:02;47.55;;;17.25;;
73859;SDS011;62197;51.632;13.700;2023-03-20T11:36:39;50.08;;;18.17;;
73859;SDS011;62197;51.632;13.700;2023-03-20T11:39:30;50.97;;;19.65;;
73859;SDS011;62197;51.632;13.700;2023-03-20T11:42:00;50.72;;;17.75;;
73859;SDS011;62197;51.632;13.700;2023-03-20T11:44:28;41.47;;;15.63;;
73859;SDS011;62197;51.632;13.700;2023-03-20T11:46:55;37.72;;;14.80;;
73859;SDS011;62197;51.632;13.700;2023-03-20T11:49:23;39.70;;;16.05;;
73859;SDS011;62197;51.632;13.700;2023-03-20T11:51:50;43.22;;;14.57;;
73859;SDS011;62197;51.632;13.700;2023-03-20T11:54:19;41.25;;;15.07;;
73859;SDS011;62197;51.632;13.700;2023-03-20T11:56:52;38.85;;;14.77;;
73859;SDS011;62197;51.632;13.700;2023-03-20T11:59:19;42.47;;;15.95;;
73859;SDS011;62197;51.632;13.700;2023-03-20T12:01:47;37.40;;;15.52;;
73859;SDS011;62197;51.632;13.700;2023-03-20T12:04:16;38.38;;;15.70;;
73859;SDS011;62197;51.632;13.700;2023-03-20T12:07:02;32.83;;;14.70;;
73859;SDS011;62197;51.632;13.700;2023-03-20T12:09:44;33.00;;;13.68;;
73859;SDS011;62197;51.632;13.700;2023-03-20T12:12:23;35.78;;;14.85;;
73859;SDS011;62197;51.632;13.700;2023-03-20T12:17:50;32.47;;;13.90;;
73859;SDS011;62197;51.632;13.700;2023-03-20T12:23:10;28.35;;;13.57;;
73859;SDS011;62197;51.632;13.700;2023-03-20T12:30:54;29.77;;;13.30;;
73859;SDS011;62197;51.632;13.700;2023-03-20T12:33:34;30.20;;;13.18;;
73859;SDS011;62197;51.632;13.700;2023-03-20T12:36:10;26.83;;;12.63;;
73859;SDS011;62197;51.632;13.700;2023-03-20T12:38:38;33.72;;;14.88;;
73859;SDS011;62197;51.632;13.700;2023-03-20T12:41:10;30.50;;;12.57;;
73859;SDS011;62197;51.632;13.700;2023-03-20T12:43:53;32.25;;;13.50;;
73859;SDS011;62197;51.632;13.700;2023-03-20T12:49:25;27.50;;;13.15;;
73859;SDS011;62197;51.632;13.700;2023-03-20T12:52:08;31.60;;;13.13;;
73859;SDS011;62197;51.632;13.700;2023-03-20T12:55:05;33.90;;;13.00;;
73859;SDS011;62197;51.632;13.700;2023-03-20T12:57:38;29.25;;;12.93;;
73859;SDS011;62197;51.632;13.700;2023-03-20T13:00:22;30.50;;;13.32;;
73859;SDS011;62197;51.632;13.700;2023-03-20T13:03:03;25.30;;;12.30;;
73859;SDS011;62197;51.632;13.700;2023-03-20T13:05:45;30.35;;;13.63;;
73859;SDS011;62197;51.632;13.700;2023-03-20T13:08:30;30.50;;;12.98;;
73859;SDS011;62197;51.632;13.700;2023-03-20T13:11:28;29.02;;;12.52;;
73859;SDS011;62197;51.632;13.700;2023-03-20T13:14:07;32.08;;;14.85;;
73859;SDS011;62197;51.632;13.700;2023-03-20T13:21:37;29.58;;;12.80;;
73859;SDS011;62197;51.632;13.700;2023-03-20T13:24:15;29.20;;;14.70;;
73859;SDS011;62197;51.632;13.700;2023-03-20T13:26:51;30.05;;;13.32;;
73859;SDS011;62197;51.632;13.700;2023-03-20T13:37:29;31.42;;;12.82;;
73859;SDS011;62197;51.632;13.700;2023-03-20T13:40:21;35.13;;;13.63;;
73859;SDS011;62197;51.632;13.700;2023-03-20T13:42:55;34.13;;;13.95;;
73859;SDS011;62197;51.632;13.700;2023-03-20T13:45:29;34.15;;;13.80;;
73859;SDS011;62197;51.632;13.700;2023-03-20T13:48:02;31.55;;;13.20;;
73859;SDS011;62197;51.632;13.700;2023-03-20T13:53:16;32.25;;;14.07;;
73859;SDS011;62197;51.632;13.700;2023-03-20T13:58:36;36.03;;;14.20;;
73859;SDS011;62197;51.632;13.700;2023-03-20T14:01:20;31.67;;;14.85;;
73859;SDS011;62197;51.632;13.700;2023-03-20T14:04:13;33.95;;;13.70;;
73859;SDS011;62197;51.632;13.700;2023-03-20T14:06:43;37.97;;;15.40;;
73859;SDS011;62197;51.632;13.700;2023-03-20T14:09:28;39.20;;;16.63;;
73859;SDS011;62197;51.632;13.700;2023-03-20T14:12:02;37.22;;;15.55;;
73859;SDS011;62197;51.632;13.700;2023-03-20T14:14:31;35.97;;;14.98;;
73859;SDS011;62197;51.632;13.700;2023-03-20T14:17:25;39.08;;;16.00;;
73859;SDS011;62197;51.632;13.700;2023-03-20T14:19:54;39.15;;;15.07;;
73859;SDS011;62197;51.632;13.700;2023-03-20T14:22:21;38.03;;;15.30;;
73859;SDS011;62197;51.632;13.700;2023-03-20T14:25:07;36.10;;;15.75;;
73859;SDS011;62197;51.632;13.700;2023-03-20T14:27:56;37.67;;;15.57;;
73859;SDS011;62197;51.632;13.700;2023-03-20T14:32:59;34.50;;;14.32;;
73859;SDS011;62197;51.632;13.700;2023-03-20T14:35:29;35.13;;;14.70;;
73859;SDS011;62197;51.632;13.700;2023-03-20T14:38:08;35.97;;;14.82;;
73859;SDS011;62197;51.632;13.700;2023-03-20T14:40:42;31.80;;;13.38;;
73859;SDS011;62197;51.632;13.700;2023-03-20T14:43:27;32.33;;;12.70;;
73859;SDS011;62197;51.632;13.700;2023-03-20T14:46:05;27.80;;;12.27;;
73859;SDS011;62197;51.632;13.700;2023-03-20T14:48:45;30.85;;;15.13;;
73859;SDS011;62197;51.632;13.700;2023-03-20T14:56:46;35.10;;;15.02;;
73859;SDS011;62197;51.632;13.700;2023-03-20T14:59:13;37.15;;;15.05;;
73859;SDS011;62197;51.632;13.700;2023-03-20T15:04:38;31.83;;;13.00;;
73859;SDS011;62197;51.632;13.700;2023-03-20T15:07:15;32.70;;;14.65;;
73859;SDS011;62197;51.632;13.700;2023-03-20T15:09:50;38.95;;;15.15;;
73859;SDS011;62197;51.632;13.700;2023-03-20T15:12:25;36.50;;;15.45;;
73859;SDS011;62197;51.632;13.700;2023-03-20T15:14:55;36.45;;;14.85;;
73859;SDS011;62197;51.632;13.700;2023-03-20T15:17:25;29.48;;;13.27;;
73859;SDS011;62197;51.632;13.700;2023-03-20T15:22:46;34.22;;;13.63;;
73859;SDS011;62197;51.632;13.700;2023-03-20T15:25:15;32.58;;;15.18;;
73859;SDS011;62197;51.632;13.700;2023-03-20T15:27:41;31.25;;;14.25;;
73859;SDS011;62197;51.632;13.700;2023-03-20T15:30:08;36.63;;;14.38;;
73859;SDS011;62197;51.632;13.700;2023-03-20T15:32:38;40.15;;;14.82;;
73859;SDS011;62197;51.632;13.700;2023-03-20T15:35:04;31.50;;;13.48;;
73859;SDS011;62197;51.632;13.700;2023-03-20T15:37:30;31.92;;;13.38;;
73859;SDS011;62197;51.632;13.700;2023-03-20T15:39:55;30.02;;;13.43;;
73859;SDS011;62197;51.632;13.700;2023-03-20T15:42:23;28.92;;;13.98;;
73859;SDS011;62197;51.632;13.700;2023-03-20T15:44:51;33.95;;;13.48;;
73859;SDS011;62197;51.632;13.700;2023-03-20T15:47:20;33.95;;;13.23;;
73859;SDS011;62197;51.632;13.700;2023-03-20T15:49:51;31.27;;;12.90;;
73859;SDS011;62197;51.632;13.700;2023-03-20T15:52:19;36.17;;;14.25;;
73859;SDS011;62197;51.632;13.700;2023-03-20T15:54:49;32.40;;;13.95;;
73859;SDS011;62197;51.632;13.700;2023-03-20T15:57:18;29.42;;;13.65;;
73859;SDS011;62197;51.632;13.700;2023-03-20T15:59:47;34.65;;;14.50;;
73859;SDS011;62197;51.632;13.700;2023-03-20T16:02:13;32.58;;;13.93;;
73859;SDS011;62197;51.632;13.700;2023-03-20T16:04:46;32.63;;;13.80;;
73859;SDS011;62197;51.632;13.700;2023-03-20T16:07:22;35.05;;;14.95;;
73859;SDS011;62197;51.632;13.700;2023-03-20T16:09:51;35.30;;;15.65;;
73859;SDS011;62197;51.632;13.700;2023-03-20T16:12:17;36.20;;;14.52;;
73859;SDS011;62197;51.632;13.700;2023-03-20T16:14:43;35.95;;;15.40;;
73859;SDS011;62197;51.632;13.700;2023-03-20T16:17:10;37.58;;;16.40;;
73859;SDS011;62197;51.632;13.700;2023-03-20T16:19:37;34.38;;;14.07;;
73859;SDS011;62197;51.632;13.700;2023-03-20T16:22:23;37.13;;;14.98;;
73859;SDS011;62197;51.632;13.700;2023-03-20T16:24:53;37.42;;;15.02;;
73859;SDS011;62197;51.632;13.700;2023-03-20T16:27:24;39.45;;;15.45;;
73859;SDS011;62197;51.632;13.700;2023-03-20T16:29:52;36.90;;;15.65;;
73859;SDS011;62197;51.632;13.700;2023-03-20T16:35:05;39.33;;;15.80;;
73859;SDS011;62197;51.632;13.700;2023-03-20T16:37:45;35.17;;;15.23;;
73859;SDS011;62197;51.632;13.700;2023-03-20T16:40:18;41.42;;;16.45;;
73859;SDS011;62197;51.632;13.700;2023-03-20T16:42:52;45.28;;;17.10;;
73859;SDS011;62197;51.632;13.700;2023-03-20T16:45:27;42.80;;;16.63;;
73859;SDS011;62197;51.632;13.700;2023-03-20T16:50:42;43.30;;;16.85;;
73859;SDS011;62197;51.632;13.700;2023-03-20T16:53:18;40.92;;;15.07;;
73859;SDS011;62197;51.632;13.700;2023-03-20T16:55:45;37.00;;;15.05;;
73859;SDS011;62197;51.632;13.700;2023-03-20T16:58:14;40.30;;;16.55;;
73859;SDS011;62197;51.632;13.700;2023-03-20T17:01:05;41.40;;;15.48;;
73859;SDS011;62197;51.632;13.700;2023-03-20T17:06:08;39.88;;;15.95;;
73859;SDS011;62197;51.632;13.700;2023-03-20T17:09:01;39.92;;;15.45;;
73859;SDS011;62197;51.632;13.700;2023-03-20T17:11:43;39.85;;;15.43;;
73859;SDS011;62197;51.632;13.700;2023-03-20T17:14:12;36.42;;;15.75;;
73859;SDS011;62197;51.632;13.700;2023-03-20T17:16:37;43.83;;;17.10;;
73859;SDS011;62197;51.632;13.700;2023-03-20T17:19:05;43.30;;;15.80;;
73859;SDS011;62197;51.632;13.700;2023-03-20T17:21:43;42.08;;;15.75;;
73859;SDS011;62197;51.632;13.700;2023-03-20T17:24:10;47.53;;;17.10;;
73859;SDS011;62197;51.632;13.700;2023-03-20T17:26:36;118.10;;;34.10;;
73859;SDS011;62197;51.632;13.700;2023-03-20T17:29:03;48.20;;;17.88;;
73859;SDS011;62197;51.632;13.700;2023-03-20T17:31:29;42.90;;;17.80;;